sensor_id;sensor_type;location;lat;lon;timestamp;P1;durP1;ratioP1;P2;durP2;ratioP2
3307;SDS011;1666;48.898;9.182;2023-07-20T00:00:37;3.35;;;2.00;;
3307;SDS011;1666;48.898;9.182;2023-07-20T00:03:10;5.03;;;1.98;;
3307;SDS011;1666;48.898;9.182;2023-07-20T00:05:46;2.60;;;1.83;;
3307;SDS011;1666;48.898;9.182;2023-07-20T00:08:16;5.38;;;2.08;;
3307;SDS011;1666;48.898;9.182;2023-07-20T00:10:46;3.05;;;1.80;;
3307;SDS011;1666;48.898;9.182;2023-07-20T00:13:16;4.28;;;2.22;;
3307;SDS011;1666;48.898;9.182;2023-07-20T00:15:47;3.45;;;2.20;;
3307;SDS011;1666;48.898;9.182;2023-07-20T00:18:17;3.00;;;2.00;;
3307;SDS011;1666;48.898;9.182;2023-07-20T00:20:50;2.83;;;1.70;;
3307;SDS011;1666;48.898;9.182;2023-07-20T00:23:20;3.90;;;1.60;;
3307;SDS011;1666;48.898;9.182;2023-07-20T00:25:50;4.82;;;1.85;;
3307;SDS011;1666;48.898;9.182;2023-07-20T00:28:20;3.70;;;1.80;;
3307;SDS011;1666;48.898;9.182;2023-07-20T00:30:50;2.42;;;1.77;;
3307;SDS011;1666;48.898;9.182;2023-07-20T00:33:20;3.70;;;1.92;;
3307;SDS011;1666;48.898;9.182;2023-07-20T00:35:53;2.78;;;2.00;;
3307;SDS011;1666;48.898;9.182;2023-07-20T00:38:23;2.72;;;1.63;;
3307;SDS011;1666;48.898;9.182;2023-07-20T00:40:53;2.25;;;1.75;;
3307;SDS011;1666;48.898;9.182;2023-07-20T00:43:22;3.88;;;1.90;;
3307;SDS011;1666;48.898;9.182;2023-07-20T00:45:53;2.90;;;1.85;;
3307;SDS011;1666;48.898;9.182;2023-07-20T00:48:23;6.10;;;2.25;;
3307;SDS011;1666;48.898;9.182;2023-07-20T00:50:55;10.05;;;2.10;;
3307;SDS011;1666;48.898;9.182;2023-07-20T00:53:27;2.47;;;1.80;;
3307;SDS011;1666;48.898;9.182;2023-07-20T00:55:58;4.18;;;1.75;;
3307;SDS011;1666;48.898;9.182;2023-07-20T00:58:28;3.33;;;1.70;;
3307;SDS011;1666;48.898;9.182;2023-07-20T01:00:57;7.20;;;2.50;;
3307;SDS011;1666;48.898;9.182;2023-07-20T01:03:27;4.10;;;2.00;;
3307;SDS011;1666;48.898;9.182;2023-07-20T01:06:04;2.85;;;1.80;;
3307;SDS011;1666;48.898;9.182;2023-07-20T01:08:43;2.70;;;1.98;;
3307;SDS011;1666;48.898;9.182;2023-07-20T01:11:22;3.15;;;1.50;;
3307;SDS011;1666;48.898;9.182;2023-07-20T01:14:05;5.47;;;1.60;;
3307;SDS011;1666;48.898;9.182;2023-07-20T01:16:36;2.97;;;1.58;;
3307;SDS011;1666;48.898;9.182;2023-07-20T01:19:06;4.20;;;1.52;;
3307;SDS011;1666;48.898;9.182;2023-07-20T01:21:41;2.70;;;1.77;;
3307;SDS011;1666;48.898;9.182;2023-07-20T01:27:22;4.45;;;1.80;;
3307;SDS011;1666;48.898;9.182;2023-07-20T01:30:18;4.32;;;1.75;;
3307;SDS011;1666;48.898;9.182;2023-07-20T01:33:04;3.05;;;1.80;;
3307;SDS011;1666;48.898;9.182;2023-07-20T01:35:36;4.40;;;1.90;;
3307;SDS011;1666;48.898;9.182;2023-07-20T01:38:07;3.45;;;1.63;;
3307;SDS011;1666;48.898;9.182;2023-07-20T01:40:38;4.03;;;1.60;;
3307;SDS011;1666;48.898;9.182;2023-07-20T01:43:09;3.92;;;1.77;;
3307;SDS011;1666;48.898;9.182;2023-07-20T01:45:40;3.47;;;1.73;;
3307;SDS011;1666;48.898;9.182;2023-07-20T01:48:13;3.92;;;2.15;;
3307;SDS011;1666;48.898;9.182;2023-07-20T01:50:43;5.05;;;1.73;;
3307;SDS011;1666;48.898;9.182;2023-07-20T01:53:13;5.20;;;1.75;;
3307;SDS011;1666;48.898;9.182;2023-07-20T01:55:43;3.67;;;1.90;;
3307;SDS011;1666;48.898;9.182;2023-07-20T01:58:13;3.15;;;1.95;;
3307;SDS011;1666;48.898;9.182;2023-07-20T02:00:43;2.80;;;2.00;;
3307;SDS011;1666;48.898;9.182;2023-07-20T02:03:15;3.28;;;1.42;;
3307;SDS011;1666;48.898;9.182;2023-07-20T02:05:48;2.83;;;1.80;;
3307;SDS011;1666;48.898;9.182;2023-07-20T02:08:18;5.00;;;1.90;;
3307;SDS011;1666;48.898;9.182;2023-07-20T02:10:48;3.53;;;1.83;;
3307;SDS011;1666;48.898;9.182;2023-07-20T02:13:18;2.83;;;1.75;;
3307;SDS011;1666;48.898;9.182;2023-07-20T02:15:48;4.90;;;1.75;;
3307;SDS011;1666;48.898;9.182;2023-07-20T02:18:21;3.85;;;1.80;;
3307;SDS011;1666;48.898;9.182;2023-07-20T02:20:52;3.97;;;1.90;;
3307;SDS011;1666;48.898;9.182;2023-07-20T02:23:22;3.70;;;1.92;;
3307;SDS011;1666;48.898;9.182;2023-07-20T02:25:52;3.72;;;1.80;;
3307;SDS011;1666;48.898;9.182;2023-07-20T02:28:22;4.03;;;1.65;;
3307;SDS011;1666;48.898;9.182;2023-07-20T02:30:52;4.63;;;1.83;;
3307;SDS011;1666;48.898;9.182;2023-07-20T02:33:25;7.03;;;1.83;;
3307;SDS011;1666;48.898;9.182;2023-07-20T02:35:55;2.53;;;1.73;;
3307;SDS011;1666;48.898;9.182;2023-07-20T02:38:25;3.50;;;1.77;;
3307;SDS011;1666;48.898;9.182;2023-07-20T02:40:55;4.45;;;1.77;;
3307;SDS011;1666;48.898;9.182;2023-07-20T02:43:24;4.20;;;1.95;;
3307;SDS011;1666;48.898;9.182;2023-07-20T02:45:55;3.90;;;1.83;;
3307;SDS011;1666;48.898;9.182;2023-07-20T02:48:27;2.83;;;1.92;;
3307;SDS011;1666;48.898;9.182;2023-07-20T02:50:57;3.05;;;2.10;;
3307;SDS011;1666;48.898;9.182;2023-07-20T02:53:27;4.18;;;1.85;;
3307;SDS011;1666;48.898;9.182;2023-07-20T02:55:57;4.93;;;2.00;;
3307;SDS011;1666;48.898;9.182;2023-07-20T02:58:27;4.70;;;2.35;;
3307;SDS011;1666;48.898;9.182;2023-07-20T03:00:57;5.95;;;2.30;;
3307;SDS011;1666;48.898;9.182;2023-07-20T03:03:29;4.95;;;2.40;;
3307;SDS011;1666;48.898;9.182;2023-07-20T03:06:05;3.90;;;2.17;;
3307;SDS011;1666;48.898;9.182;2023-07-20T03:08:35;3.83;;;2.03;;
3307;SDS011;1666;48.898;9.182;2023-07-20T03:11:05;4.60;;;2.10;;
3307;SDS011;1666;48.898;9.182;2023-07-20T03:13:35;3.65;;;2.15;;
3307;SDS011;1666;48.898;9.182;2023-07-20T03:16:05;2.67;;;1.95;;
3307;SDS011;1666;48.898;9.182;2023-07-20T03:18:40;4.22;;;2.03;;
3307;SDS011;1666;48.898;9.182;2023-07-20T03:21:10;2.80;;;2.10;;
3307;SDS011;1666;48.898;9.182;2023-07-20T03:23:40;3.65;;;1.98;;
3307;SDS011;1666;48.898;9.182;2023-07-20T03:26:11;3.88;;;2.47;;
3307;SDS011;1666;48.898;9.182;2023-07-20T03:28:41;3.58;;;2.13;;
3307;SDS011;1666;48.898;9.182;2023-07-20T03:31:11;3.50;;;2.15;;
3307;SDS011;1666;48.898;9.182;2023-07-20T03:33:44;5.38;;;2.05;;
3307;SDS011;1666;48.898;9.182;2023-07-20T03:36:14;6.63;;;2.20;;
3307;SDS011;1666;48.898;9.182;2023-07-20T03:38:44;4.43;;;2.00;;
3307;SDS011;1666;48.898;9.182;2023-07-20T03:41:14;3.47;;;2.13;;
3307;SDS011;1666;48.898;9.182;2023-07-20T03:43:43;4.43;;;2.10;;
3307;SDS011;1666;48.898;9.182;2023-07-20T03:46:13;4.35;;;1.90;;
3307;SDS011;1666;48.898;9.182;2023-07-20T03:48:46;4.22;;;2.00;;
3307;SDS011;1666;48.898;9.182;2023-07-20T03:51:16;5.35;;;2.58;;
3307;SDS011;1666;48.898;9.182;2023-07-20T03:53:46;3.88;;;2.55;;
3307;SDS011;1666;48.898;9.182;2023-07-20T03:56:16;4.40;;;2.38;;
3307;SDS011;1666;48.898;9.182;2023-07-20T03:58:46;5.38;;;2.53;;
3307;SDS011;1666;48.898;9.182;2023-07-20T04:01:16;3.53;;;2.13;;
3307;SDS011;1666;48.898;9.182;2023-07-20T04:03:48;5.55;;;2.25;;
3307;SDS011;1666;48.898;9.182;2023-07-20T04:06:18;3.50;;;2.00;;
3307;SDS011;1666;48.898;9.182;2023-07-20T04:08:49;3.80;;;2.10;;
3307;SDS011;1666;48.898;9.182;2023-07-20T04:11:19;3.55;;;1.95;;
3307;SDS011;1666;48.898;9.182;2023-07-20T04:13:49;4.28;;;2.08;;
3307;SDS011;1666;48.898;9.182;2023-07-20T04:16:19;4.30;;;1.90;;
3307;SDS011;1666;48.898;9.182;2023-07-20T04:18:52;3.92;;;1.60;;
3307;SDS011;1666;48.898;9.182;2023-07-20T04:23:55;6.85;;;2.08;;
3307;SDS011;1666;48.898;9.182;2023-07-20T04:26:25;3.83;;;2.17;;
3307;SDS011;1666;48.898;9.182;2023-07-20T04:28:55;5.30;;;2.13;;
3307;SDS011;1666;48.898;9.182;2023-07-20T04:31:25;4.32;;;2.05;;
3307;SDS011;1666;48.898;9.182;2023-07-20T04:33:59;4.75;;;2.15;;
3307;SDS011;1666;48.898;9.182;2023-07-20T04:36:29;3.08;;;1.70;;
3307;SDS011;1666;48.898;9.182;2023-07-20T04:38:59;3.85;;;1.92;;
3307;SDS011;1666;48.898;9.182;2023-07-20T04:41:33;4.20;;;2.28;;
3307;SDS011;1666;48.898;9.182;2023-07-20T04:44:03;3.03;;;1.95;;
3307;SDS011;1666;48.898;9.182;2023-07-20T04:46:33;2.58;;;1.90;;
3307;SDS011;1666;48.898;9.182;2023-07-20T04:49:06;3.45;;;2.13;;
3307;SDS011;1666;48.898;9.182;2023-07-20T04:51:36;3.35;;;2.03;;
3307;SDS011;1666;48.898;9.182;2023-07-20T04:54:05;4.88;;;2.20;;
3307;SDS011;1666;48.898;9.182;2023-07-20T04:56:35;4.65;;;1.85;;
3307;SDS011;1666;48.898;9.182;2023-07-20T04:59:05;5.78;;;2.03;;
3307;SDS011;1666;48.898;9.182;2023-07-20T05:01:35;3.67;;;1.92;;
3307;SDS011;1666;48.898;9.182;2023-07-20T05:04:08;3.05;;;1.85;;
3307;SDS011;1666;48.898;9.182;2023-07-20T05:06:43;3.70;;;2.00;;
3307;SDS011;1666;48.898;9.182;2023-07-20T05:09:13;4.60;;;1.77;;
3307;SDS011;1666;48.898;9.182;2023-07-20T05:11:43;3.33;;;1.73;;
3307;SDS011;1666;48.898;9.182;2023-07-20T05:14:14;8.27;;;1.92;;
3307;SDS011;1666;48.898;9.182;2023-07-20T05:16:44;3.45;;;1.98;;
3307;SDS011;1666;48.898;9.182;2023-07-20T05:19:16;5.38;;;1.90;;
3307;SDS011;1666;48.898;9.182;2023-07-20T05:21:46;3.13;;;2.08;;
3307;SDS011;1666;48.898;9.182;2023-07-20T05:24:16;4.70;;;2.25;;
3307;SDS011;1666;48.898;9.182;2023-07-20T05:26:47;3.28;;;1.95;;
3307;SDS011;1666;48.898;9.182;2023-07-20T05:29:17;3.92;;;1.92;;
3307;SDS011;1666;48.898;9.182;2023-07-20T05:31:47;7.10;;;1.88;;
3307;SDS011;1666;48.898;9.182;2023-07-20T05:34:20;4.75;;;1.92;;
3307;SDS011;1666;48.898;9.182;2023-07-20T05:36:50;4.05;;;2.15;;
3307;SDS011;1666;48.898;9.182;2023-07-20T05:39:35;6.50;;;2.20;;
3307;SDS011;1666;48.898;9.182;2023-07-20T05:42:05;5.32;;;1.90;;
3307;SDS011;1666;48.898;9.182;2023-07-20T05:44:35;6.63;;;2.45;;
3307;SDS011;1666;48.898;9.182;2023-07-20T05:47:07;6.13;;;2.40;;
3307;SDS011;1666;48.898;9.182;2023-07-20T05:49:39;9.40;;;2.20;;
3307;SDS011;1666;48.898;9.182;2023-07-20T05:52:09;7.38;;;2.20;;
3307;SDS011;1666;48.898;9.182;2023-07-20T05:54:39;4.03;;;1.90;;
3307;SDS011;1666;48.898;9.182;2023-07-20T05:57:09;2.83;;;1.60;;
3307;SDS011;1666;48.898;9.182;2023-07-20T05:59:40;6.18;;;2.20;;
3307;SDS011;1666;48.898;9.182;2023-07-20T06:02:11;5.40;;;2.33;;
3307;SDS011;1666;48.898;9.182;2023-07-20T06:04:43;3.38;;;1.65;;
3307;SDS011;1666;48.898;9.182;2023-07-20T06:07:13;6.03;;;2.08;;
3307;SDS011;1666;48.898;9.182;2023-07-20T06:09:43;4.22;;;2.25;;
3307;SDS011;1666;48.898;9.182;2023-07-20T06:12:13;6.68;;;1.90;;
3307;SDS011;1666;48.898;9.182;2023-07-20T06:14:43;6.30;;;1.95;;
3307;SDS011;1666;48.898;9.182;2023-07-20T06:17:13;5.85;;;2.00;;
3307;SDS011;1666;48.898;9.182;2023-07-20T06:19:45;4.82;;;1.98;;
3307;SDS011;1666;48.898;9.182;2023-07-20T06:22:15;3.33;;;1.60;;
3307;SDS011;1666;48.898;9.182;2023-07-20T06:24:45;3.70;;;1.50;;
3307;SDS011;1666;48.898;9.182;2023-07-20T06:27:15;5.55;;;1.67;;
3307;SDS011;1666;48.898;9.182;2023-07-20T06:29:45;3.75;;;1.77;;
3307;SDS011;1666;48.898;9.182;2023-07-20T06:32:15;5.53;;;1.83;;
3307;SDS011;1666;48.898;9.182;2023-07-20T06:34:47;2.10;;;1.40;;
3307;SDS011;1666;48.898;9.182;2023-07-20T06:37:17;3.85;;;1.60;;
3307;SDS011;1666;48.898;9.182;2023-07-20T06:39:48;4.63;;;1.80;;
3307;SDS011;1666;48.898;9.182;2023-07-20T06:42:21;4.25;;;1.90;;
3307;SDS011;1666;48.898;9.182;2023-07-20T06:44:57;4.20;;;1.90;;
3307;SDS011;1666;48.898;9.182;2023-07-20T06:47:29;4.05;;;1.63;;
3307;SDS011;1666;48.898;9.182;2023-07-20T06:50:01;3.55;;;1.73;;
3307;SDS011;1666;48.898;9.182;2023-07-20T06:52:31;4.03;;;1.70;;
3307;SDS011;1666;48.898;9.182;2023-07-20T06:55:02;4.22;;;1.65;;
3307;SDS011;1666;48.898;9.182;2023-07-20T06:57:32;3.60;;;1.83;;
3307;SDS011;1666;48.898;9.182;2023-07-20T07:00:03;4.20;;;2.00;;
3307;SDS011;1666;48.898;9.182;2023-07-20T07:02:33;5.57;;;1.70;;
3307;SDS011;1666;48.898;9.182;2023-07-20T07:05:07;7.35;;;1.77;;
3307;SDS011;1666;48.898;9.182;2023-07-20T07:07:40;2.75;;;1.50;;
3307;SDS011;1666;48.898;9.182;2023-07-20T07:10:10;3.92;;;1.80;;
3307;SDS011;1666;48.898;9.182;2023-07-20T07:12:40;4.53;;;1.63;;
3307;SDS011;1666;48.898;9.182;2023-07-20T07:15:10;4.60;;;1.50;;
3307;SDS011;1666;48.898;9.182;2023-07-20T07:17:40;3.30;;;1.77;;
3307;SDS011;1666;48.898;9.182;2023-07-20T07:20:13;5.20;;;1.77;;
3307;SDS011;1666;48.898;9.182;2023-07-20T07:22:46;4.70;;;1.98;;
3307;SDS011;1666;48.898;9.182;2023-07-20T07:25:16;3.85;;;2.00;;
3307;SDS011;1666;48.898;9.182;2023-07-20T07:27:49;5.28;;;1.98;;
3307;SDS011;1666;48.898;9.182;2023-07-20T07:30:20;8.07;;;1.58;;
3307;SDS011;1666;48.898;9.182;2023-07-20T07:32:50;7.93;;;2.03;;
3307;SDS011;1666;48.898;9.182;2023-07-20T07:35:23;3.67;;;2.15;;
3307;SDS011;1666;48.898;9.182;2023-07-20T07:37:53;4.53;;;2.28;;
3307;SDS011;1666;48.898;9.182;2023-07-20T07:40:29;4.60;;;1.70;;
3307;SDS011;1666;48.898;9.182;2023-07-20T07:42:59;9.43;;;2.00;;
3307;SDS011;1666;48.898;9.182;2023-07-20T07:45:30;4.25;;;1.80;;
3307;SDS011;1666;48.898;9.182;2023-07-20T07:48:02;4.20;;;2.05;;
3307;SDS011;1666;48.898;9.182;2023-07-20T07:50:34;4.03;;;1.83;;
3307;SDS011;1666;48.898;9.182;2023-07-20T07:53:04;4.47;;;1.70;;
3307;SDS011;1666;48.898;9.182;2023-07-20T07:55:35;7.75;;;1.88;;
3307;SDS011;1666;48.898;9.182;2023-07-20T07:58:05;3.13;;;1.58;;
3307;SDS011;1666;48.898;9.182;2023-07-20T08:00:35;4.82;;;1.60;;
3307;SDS011;1666;48.898;9.182;2023-07-20T08:03:05;4.13;;;1.95;;
3307;SDS011;1666;48.898;9.182;2023-07-20T08:05:38;3.88;;;1.70;;
3307;SDS011;1666;48.898;9.182;2023-07-20T08:08:08;5.93;;;2.22;;
3307;SDS011;1666;48.898;9.182;2023-07-20T08:10:38;10.15;;;1.90;;
3307;SDS011;1666;48.898;9.182;2023-07-20T08:13:08;7.82;;;2.17;;
3307;SDS011;1666;48.898;9.182;2023-07-20T08:15:38;3.83;;;1.75;;
3307;SDS011;1666;48.898;9.182;2023-07-20T08:18:08;3.67;;;1.90;;
3307;SDS011;1666;48.898;9.182;2023-07-20T08:20:41;5.05;;;1.85;;
3307;SDS011;1666;48.898;9.182;2023-07-20T08:23:13;3.85;;;1.80;;
3307;SDS011;1666;48.898;9.182;2023-07-20T08:25:43;4.53;;;1.80;;
3307;SDS011;1666;48.898;9.182;2023-07-20T08:28:13;8.25;;;1.67;;
3307;SDS011;1666;48.898;9.182;2023-07-20T08:30:45;7.35;;;2.30;;
3307;SDS011;1666;48.898;9.182;2023-07-20T08:33:17;5.40;;;1.73;;
3307;SDS011;1666;48.898;9.182;2023-07-20T08:35:50;3.40;;;1.55;;
3307;SDS011;1666;48.898;9.182;2023-07-20T08:38:23;3.33;;;1.60;;
3307;SDS011;1666;48.898;9.182;2023-07-20T08:40:53;5.05;;;1.50;;
3307;SDS011;1666;48.898;9.182;2023-07-20T08:43:26;3.15;;;1.52;;
3307;SDS011;1666;48.898;9.182;2023-07-20T08:45:57;2.67;;;1.40;;
3307;SDS011;1666;48.898;9.182;2023-07-20T08:48:29;1.85;;;1.40;;
3307;SDS011;1666;48.898;9.182;2023-07-20T08:51:03;3.55;;;1.85;;
3307;SDS011;1666;48.898;9.182;2023-07-20T08:53:33;9.57;;;1.77;;
3307;SDS011;1666;48.898;9.182;2023-07-20T08:56:04;4.50;;;1.70;;
3307;SDS011;1666;48.898;9.182;2023-07-20T08:58:34;3.95;;;1.55;;
3307;SDS011;1666;48.898;9.182;2023-07-20T09:01:05;4.13;;;1.80;;
3307;SDS011;1666;48.898;9.182;2023-07-20T09:03:35;2.85;;;1.45;;
3307;SDS011;1666;48.898;9.182;2023-07-20T09:06:09;3.90;;;1.60;;
3307;SDS011;1666;48.898;9.182;2023-07-20T09:08:38;5.85;;;2.60;;
3307;SDS011;1666;48.898;9.182;2023-07-20T09:11:10;3.70;;;2.00;;
3307;SDS011;1666;48.898;9.182;2023-07-20T09:13:41;5.45;;;1.60;;
3307;SDS011;1666;48.898;9.182;2023-07-20T09:16:13;4.40;;;1.60;;
3307;SDS011;1666;48.898;9.182;2023-07-20T09:18:43;3.85;;;1.63;;
3307;SDS011;1666;48.898;9.182;2023-07-20T09:21:17;2.38;;;1.35;;
3307;SDS011;1666;48.898;9.182;2023-07-20T09:23:48;3.10;;;2.00;;
3307;SDS011;1666;48.898;9.182;2023-07-20T09:26:19;2.25;;;1.70;;
3307;SDS011;1666;48.898;9.182;2023-07-20T09:28:52;2.75;;;1.70;;
3307;SDS011;1666;48.898;9.182;2023-07-20T09:31:22;3.13;;;1.50;;
3307;SDS011;1666;48.898;9.182;2023-07-20T09:34:06;3.85;;;1.40;;
3307;SDS011;1666;48.898;9.182;2023-07-20T09:36:39;3.40;;;1.33;;
3307;SDS011;1666;48.898;9.182;2023-07-20T09:39:12;2.45;;;1.20;;
3307;SDS011;1666;48.898;9.182;2023-07-20T09:41:55;1.75;;;1.15;;
3307;SDS011;1666;48.898;9.182;2023-07-20T09:44:33;1.75;;;1.10;;
3307;SDS011;1666;48.898;9.182;2023-07-20T09:47:06;2.35;;;1.20;;
3307;SDS011;1666;48.898;9.182;2023-07-20T09:49:38;2.47;;;1.63;;
3307;SDS011;1666;48.898;9.182;2023-07-20T09:52:15;2.75;;;1.30;;
3307;SDS011;1666;48.898;9.182;2023-07-20T09:54:48;2.90;;;1.30;;
3307;SDS011;1666;48.898;9.182;2023-07-20T09:57:19;2.75;;;1.08;;
3307;SDS011;1666;48.898;9.182;2023-07-20T09:59:51;4.13;;;1.02;;
3307;SDS011;1666;48.898;9.182;2023-07-20T10:02:23;1.83;;;1.17;;
3307;SDS011;1666;48.898;9.182;2023-07-20T10:05:01;2.67;;;1.10;;
3307;SDS011;1666;48.898;9.182;2023-07-20T10:07:39;2.00;;;1.52;;
3307;SDS011;1666;48.898;9.182;2023-07-20T10:10:14;3.15;;;1.40;;
3307;SDS011;1666;48.898;9.182;2023-07-20T10:12:47;2.40;;;1.10;;
3307;SDS011;1666;48.898;9.182;2023-07-20T10:15:20;5.63;;;1.50;;
3307;SDS011;1666;48.898;9.182;2023-07-20T10:17:57;2.58;;;1.27;;
3307;SDS011;1666;48.898;9.182;2023-07-20T10:20:30;5.63;;;1.25;;
3307;SDS011;1666;48.898;9.182;2023-07-20T10:23:04;3.45;;;1.17;;
3307;SDS011;1666;48.898;9.182;2023-07-20T10:25:35;3.92;;;1.40;;
3307;SDS011;1666;48.898;9.182;2023-07-20T10:28:08;2.05;;;1.00;;
3307;SDS011;1666;48.898;9.182;2023-07-20T10:30:40;2.28;;;0.90;;
3307;SDS011;1666;48.898;9.182;2023-07-20T10:33:11;3.22;;;1.13;;
3307;SDS011;1666;48.898;9.182;2023-07-20T10:35:51;2.45;;;1.00;;
3307;SDS011;1666;48.898;9.182;2023-07-20T10:41:17;2.33;;;1.10;;
3307;SDS011;1666;48.898;9.182;2023-07-20T10:43:48;2.53;;;1.40;;
3307;SDS011;1666;48.898;9.182;2023-07-20T10:49:14;2.30;;;1.20;;
3307;SDS011;1666;48.898;9.182;2023-07-20T10:51:48;2.30;;;1.40;;
3307;SDS011;1666;48.898;9.182;2023-07-20T10:57:23;1.45;;;0.90;;
3307;SDS011;1666;48.898;9.182;2023-07-20T11:00:06;2.45;;;1.10;;
3307;SDS011;1666;48.898;9.182;2023-07-20T11:02:41;0.82;;;0.80;;
3307;SDS011;1666;48.898;9.182;2023-07-20T11:05:31;4.20;;;1.17;;
3307;SDS011;1666;48.898;9.182;2023-07-20T11:08:03;2.65;;;1.00;;
3307;SDS011;1666;48.898;9.182;2023-07-20T11:10:37;3.90;;;0.95;;
3307;SDS011;1666;48.898;9.182;2023-07-20T11:13:17;1.58;;;1.00;;
3307;SDS011;1666;48.898;9.182;2023-07-20T11:18:34;6.38;;;1.40;;
3307;SDS011;1666;48.898;9.182;2023-07-20T11:21:08;3.65;;;0.98;;
3307;SDS011;1666;48.898;9.182;2023-07-20T11:23:39;1.88;;;0.90;;
3307;SDS011;1666;48.898;9.182;2023-07-20T11:26:11;1.52;;;1.05;;
3307;SDS011;1666;48.898;9.182;2023-07-20T11:28:42;1.67;;;1.02;;
3307;SDS011;1666;48.898;9.182;2023-07-20T11:31:13;2.83;;;0.90;;
3307;SDS011;1666;48.898;9.182;2023-07-20T11:33:44;1.65;;;0.93;;
3307;SDS011;1666;48.898;9.182;2023-07-20T11:36:14;2.65;;;1.00;;
3307;SDS011;1666;48.898;9.182;2023-07-20T11:38:47;3.83;;;1.40;;
3307;SDS011;1666;48.898;9.182;2023-07-20T11:41:20;1.38;;;0.90;;
3307;SDS011;1666;48.898;9.182;2023-07-20T11:43:50;1.75;;;1.23;;
3307;SDS011;1666;48.898;9.182;2023-07-20T11:46:20;3.58;;;1.30;;
3307;SDS011;1666;48.898;9.182;2023-07-20T11:48:55;1.33;;;0.90;;
3307;SDS011;1666;48.898;9.182;2023-07-20T11:51:26;2.72;;;1.23;;
3307;SDS011;1666;48.898;9.182;2023-07-20T11:53:58;5.90;;;1.30;;
3307;SDS011;1666;48.898;9.182;2023-07-20T11:56:30;1.67;;;1.20;;
3307;SDS011;1666;48.898;9.182;2023-07-20T11:59:00;2.00;;;0.85;;
3307;SDS011;1666;48.898;9.182;2023-07-20T12:01:30;2.55;;;1.80;;
3307;SDS011;1666;48.898;9.182;2023-07-20T12:04:02;2.78;;;1.65;;
3307;SDS011;1666;48.898;9.182;2023-07-20T12:06:33;1.70;;;1.25;;
3307;SDS011;1666;48.898;9.182;2023-07-20T12:09:03;1.90;;;1.17;;
3307;SDS011;1666;48.898;9.182;2023-07-20T12:11:36;2.50;;;1.17;;
3307;SDS011;1666;48.898;9.182;2023-07-20T12:14:07;2.17;;;1.00;;
3307;SDS011;1666;48.898;9.182;2023-07-20T12:16:43;2.00;;;1.20;;
3307;SDS011;1666;48.898;9.182;2023-07-20T12:19:13;2.38;;;0.98;;
3307;SDS011;1666;48.898;9.182;2023-07-20T12:21:43;2.33;;;1.10;;
3307;SDS011;1666;48.898;9.182;2023-07-20T12:24:13;1.48;;;0.90;;
3307;SDS011;1666;48.898;9.182;2023-07-20T12:26:46;2.17;;;1.02;;
3307;SDS011;1666;48.898;9.182;2023-07-20T12:29:16;1.55;;;0.80;;
3307;SDS011;1666;48.898;9.182;2023-07-20T12:31:46;1.77;;;1.20;;
3307;SDS011;1666;48.898;9.182;2023-07-20T12:34:16;1.80;;;1.08;;
3307;SDS011;1666;48.898;9.182;2023-07-20T12:36:46;1.48;;;1.00;;
3307;SDS011;1666;48.898;9.182;2023-07-20T12:39:16;1.73;;;1.00;;
3307;SDS011;1666;48.898;9.182;2023-07-20T12:41:49;2.78;;;1.00;;
3307;SDS011;1666;48.898;9.182;2023-07-20T12:44:19;3.05;;;1.30;;
3307;SDS011;1666;48.898;9.182;2023-07-20T12:46:48;1.98;;;1.20;;
3307;SDS011;1666;48.898;9.182;2023-07-20T12:49:18;2.22;;;1.10;;
3307;SDS011;1666;48.898;9.182;2023-07-20T12:51:48;2.22;;;1.20;;
3307;SDS011;1666;48.898;9.182;2023-07-20T12:54:18;2.67;;;1.05;;
3307;SDS011;1666;48.898;9.182;2023-07-20T12:56:51;7.32;;;1.40;;
3307;SDS011;1666;48.898;9.182;2023-07-20T12:59:24;1.75;;;1.05;;
3307;SDS011;1666;48.898;9.182;2023-07-20T13:01:54;1.70;;;1.00;;
3307;SDS011;1666;48.898;9.182;2023-07-20T13:04:27;2.03;;;1.20;;
3307;SDS011;1666;48.898;9.182;2023-07-20T13:06:57;2.30;;;1.00;;
3307;SDS011;1666;48.898;9.182;2023-07-20T13:09:46;1.38;;;0.93;;
3307;SDS011;1666;48.898;9.182;2023-07-20T13:12:19;5.03;;;1.10;;
3307;SDS011;1666;48.898;9.182;2023-07-20T13:14:49;1.40;;;1.10;;
3307;SDS011;1666;48.898;9.182;2023-07-20T13:17:19;4.05;;;1.35;;
3307;SDS011;1666;48.898;9.182;2023-07-20T13:19:49;2.60;;;1.20;;
3307;SDS011;1666;48.898;9.182;2023-07-20T13:22:19;4.60;;;1.20;;
3307;SDS011;1666;48.898;9.182;2023-07-20T13:24:50;1.90;;;1.10;;
3307;SDS011;1666;48.898;9.182;2023-07-20T13:27:22;1.38;;;1.00;;
3307;SDS011;1666;48.898;9.182;2023-07-20T13:29:52;1.90;;;1.10;;
3307;SDS011;1666;48.898;9.182;2023-07-20T13:32:23;2.42;;;0.90;;
3307;SDS011;1666;48.898;9.182;2023-07-20T13:34:57;4.93;;;1.98;;
3307;SDS011;1666;48.898;9.182;2023-07-20T13:37:27;1.60;;;0.95;;
3307;SDS011;1666;48.898;9.182;2023-07-20T13:39:57;2.08;;;0.95;;
3307;SDS011;1666;48.898;9.182;2023-07-20T13:42:30;1.10;;;0.80;;
3307;SDS011;1666;48.898;9.182;2023-07-20T13:45:01;1.80;;;0.95;;
3307;SDS011;1666;48.898;9.182;2023-07-20T13:47:32;1.85;;;0.98;;
3307;SDS011;1666;48.898;9.182;2023-07-20T13:50:03;4.07;;;0.95;;
3307;SDS011;1666;48.898;9.182;2023-07-20T13:52:34;1.35;;;0.85;;
3307;SDS011;1666;48.898;9.182;2023-07-20T13:55:08;1.75;;;1.08;;
3307;SDS011;1666;48.898;9.182;2023-07-20T13:57:40;3.60;;;1.00;;
3307;SDS011;1666;48.898;9.182;2023-07-20T14:00:11;2.10;;;1.13;;
3307;SDS011;1666;48.898;9.182;2023-07-20T14:02:44;1.63;;;1.02;;
3307;SDS011;1666;48.898;9.182;2023-07-20T14:05:16;3.13;;;1.00;;
3307;SDS011;1666;48.898;9.182;2023-07-20T14:07:49;2.83;;;1.02;;
3307;SDS011;1666;48.898;9.182;2023-07-20T14:10:19;1.20;;;0.90;;
3307;SDS011;1666;48.898;9.182;2023-07-20T14:12:52;2.25;;;1.02;;
3307;SDS011;1666;48.898;9.182;2023-07-20T14:15:22;2.05;;;1.13;;
3307;SDS011;1666;48.898;9.182;2023-07-20T14:17:52;1.50;;;0.98;;
3307;SDS011;1666;48.898;9.182;2023-07-20T14:20:22;2.47;;;1.20;;
3307;SDS011;1666;48.898;9.182;2023-07-20T14:22:52;4.47;;;1.40;;
3307;SDS011;1666;48.898;9.182;2023-07-20T14:25:24;3.22;;;1.10;;
3307;SDS011;1666;48.898;9.182;2023-07-20T14:27:57;1.13;;;0.90;;
3307;SDS011;1666;48.898;9.182;2023-07-20T14:30:27;1.50;;;0.80;;
3307;SDS011;1666;48.898;9.182;2023-07-20T14:32:57;5.03;;;1.05;;
3307;SDS011;1666;48.898;9.182;2023-07-20T14:35:27;2.65;;;1.15;;
3307;SDS011;1666;48.898;9.182;2023-07-20T14:37:57;3.30;;;1.20;;
3307;SDS011;1666;48.898;9.182;2023-07-20T14:40:27;1.50;;;1.30;;
3307;SDS011;1666;48.898;9.182;2023-07-20T14:43:00;2.33;;;1.25;;
3307;SDS011;1666;48.898;9.182;2023-07-20T14:45:30;2.13;;;0.98;;
3307;SDS011;1666;48.898;9.182;2023-07-20T14:48:00;2.75;;;1.08;;
3307;SDS011;1666;48.898;9.182;2023-07-20T14:50:30;4.43;;;1.35;;
3307;SDS011;1666;48.898;9.182;2023-07-20T14:53:00;3.53;;;1.42;;
3307;SDS011;1666;48.898;9.182;2023-07-20T14:55:32;4.38;;;1.20;;
3307;SDS011;1666;48.898;9.182;2023-07-20T14:58:04;2.00;;;1.02;;
3307;SDS011;1666;48.898;9.182;2023-07-20T15:00:34;2.05;;;0.98;;
3307;SDS011;1666;48.898;9.182;2023-07-20T15:03:04;4.53;;;1.10;;
3307;SDS011;1666;48.898;9.182;2023-07-20T15:05:36;2.28;;;1.02;;
3307;SDS011;1666;48.898;9.182;2023-07-20T15:08:06;4.05;;;1.88;;
3307;SDS011;1666;48.898;9.182;2023-07-20T15:10:36;2.00;;;1.08;;
3307;SDS011;1666;48.898;9.182;2023-07-20T15:13:09;2.00;;;0.90;;
3307;SDS011;1666;48.898;9.182;2023-07-20T15:15:39;2.17;;;1.15;;
3307;SDS011;1666;48.898;9.182;2023-07-20T15:18:09;3.83;;;1.10;;
3307;SDS011;1666;48.898;9.182;2023-07-20T15:20:39;1.15;;;0.75;;
3307;SDS011;1666;48.898;9.182;2023-07-20T15:23:09;1.45;;;1.00;;
3307;SDS011;1666;48.898;9.182;2023-07-20T15:25:39;1.83;;;1.10;;
3307;SDS011;1666;48.898;9.182;2023-07-20T15:28:12;1.75;;;1.00;;
3307;SDS011;1666;48.898;9.182;2023-07-20T15:30:42;1.10;;;0.73;;
3307;SDS011;1666;48.898;9.182;2023-07-20T15:33:15;2.58;;;1.10;;
3307;SDS011;1666;48.898;9.182;2023-07-20T15:35:45;5.18;;;1.20;;
3307;SDS011;1666;48.898;9.182;2023-07-20T15:38:15;1.80;;;0.90;;
3307;SDS011;1666;48.898;9.182;2023-07-20T15:40:45;1.42;;;0.95;;
3307;SDS011;1666;48.898;9.182;2023-07-20T15:43:19;1.77;;;1.08;;
3307;SDS011;1666;48.898;9.182;2023-07-20T15:45:49;1.40;;;1.05;;
3307;SDS011;1666;48.898;9.182;2023-07-20T15:48:18;4.07;;;0.80;;
3307;SDS011;1666;48.898;9.182;2023-07-20T15:50:49;1.00;;;0.82;;
3307;SDS011;1666;48.898;9.182;2023-07-20T15:53:19;1.20;;;0.90;;
3307;SDS011;1666;48.898;9.182;2023-07-20T15:55:52;3.08;;;0.98;;
3307;SDS011;1666;48.898;9.182;2023-07-20T15:58:26;1.48;;;1.00;;